createdAt,value
2018-08-23T00:00:22.596Z,30.40
2018-08-23T00:02:51.057Z,29.73
2018-08-23T00:05:20.744Z,26.97
2018-08-23T00:07:58.817Z,27.07
2018-08-23T00:10:26.227Z,26.70
2018-08-23T00:12:59.098Z,27.03
2018-08-23T00:15:30.836Z,28.77
2018-08-23T00:17:58.231Z,29.33
2018-08-23T00:20:25.651Z,27.20
2018-08-23T00:22:53.577Z,29.73
2018-08-23T00:25:21.052Z,27.80
2018-08-23T00:27:48.503Z,26.90
2018-08-23T00:30:17.855Z,28.70
2018-08-23T00:32:45.323Z,30.87
2018-08-23T00:35:18.695Z,27.60
2018-08-23T00:37:46.533Z,30.00
2018-08-23T00:40:14.736Z,31.33
2018-08-23T00:42:44.447Z,28.27
2018-08-23T00:45:14.803Z,30.33
2018-08-23T00:47:42.299Z,33.03
2018-08-23T00:50:09.956Z,30.50
2018-08-23T00:52:43.240Z,31.10
2018-08-23T00:55:29.189Z,30.80
2018-08-23T00:57:56.712Z,31.07
2018-08-23T01:00:25.376Z,31.10
2018-08-23T01:03:01.309Z,31.60
2018-08-23T01:05:34.355Z,32.70
2018-08-23T01:08:02.164Z,30.33
2018-08-23T01:10:29.633Z,32.30
2018-08-23T01:12:59.440Z,33.03
2018-08-23T01:15:27.229Z,32.40
2018-08-23T01:18:07.491Z,31.00
2018-08-23T01:20:34.954Z,30.90
2018-08-23T01:23:02.527Z,32.20
2018-08-23T01:25:31.952Z,33.50
2018-08-23T01:27:59.375Z,30.83
2018-08-23T01:30:26.759Z,31.03
2018-08-23T01:32:54.260Z,35.33
2018-08-23T01:35:21.643Z,32.30
2018-08-23T01:37:49.051Z,37.30
2018-08-23T01:40:16.522Z,32.03
2018-08-23T01:42:43.923Z,34.93
2018-08-23T01:45:11.772Z,33.00
2018-08-23T01:47:44.958Z,34.90
2018-08-23T01:50:13.328Z,36.30
2018-08-23T01:52:44.676Z,35.07
2018-08-23T01:55:14.268Z,33.20
2018-08-23T01:57:41.883Z,33.67
2018-08-23T02:00:10.305Z,44.40
2018-08-23T02:02:38.124Z,35.00
2018-08-23T02:05:06.020Z,33.10
2018-08-23T02:07:33.523Z,33.90
2018-08-23T02:10:02.501Z,34.20
2018-08-23T02:12:30.044Z,36.00
2018-08-23T02:15:00.760Z,34.13
2018-08-23T02:17:32.362Z,34.03
2018-08-23T02:19:59.860Z,35.17
2018-08-23T02:22:27.295Z,38.93
2018-08-23T02:24:54.677Z,35.70
2018-08-23T02:27:22.678Z,37.73
2018-08-23T02:29:50.108Z,36.90
2018-08-23T02:32:17.633Z,34.97
2018-08-23T02:34:46.695Z,36.50
2018-08-23T02:37:15.323Z,36.23
2018-08-23T02:39:43.665Z,37.50
2018-08-23T02:42:13.727Z,36.03
2018-08-23T02:44:42.142Z,40.03
2018-08-23T02:47:09.431Z,39.67
2018-08-23T02:49:36.879Z,41.63
2018-08-23T02:52:04.539Z,40.20
2018-08-23T02:54:32.237Z,40.07
2018-08-23T02:57:00.323Z,40.90
2018-08-23T02:59:28.404Z,38.80
2018-08-23T03:01:55.832Z,39.73
2018-08-23T03:04:25.496Z,38.90
2018-08-23T03:07:00.743Z,42.70
2018-08-23T03:09:29.647Z,38.73
2018-08-23T03:11:58.071Z,39.00
2018-08-23T03:14:26.404Z,42.83
2018-08-23T03:17:26.699Z,43.67
2018-08-23T03:19:58.596Z,45.40
2018-08-23T03:22:28.889Z,40.67
2018-08-23T03:24:58.064Z,44.50
2018-08-23T03:27:25.503Z,47.10
2018-08-23T03:29:52.975Z,50.00
2018-08-23T03:32:20.385Z,46.13
2018-08-23T03:34:47.772Z,43.50
2018-08-23T03:37:15.415Z,44.67
2018-08-23T03:39:42.830Z,48.17
2018-08-23T03:42:10.216Z,44.90
2018-08-23T03:44:38.433Z,47.30
2018-08-23T03:47:05.890Z,46.00
2018-08-23T03:49:39.119Z,45.60
2018-08-23T03:52:06.503Z,43.67
2018-08-23T03:54:33.891Z,52.40
2018-08-23T03:57:12.104Z,44.13
2018-08-23T03:59:42.199Z,48.90
2018-08-23T04:02:09.771Z,50.57
2018-08-23T04:04:37.188Z,51.00
2018-08-23T04:07:04.647Z,45.83
2018-08-23T04:09:32.068Z,53.17
2018-08-23T04:12:00.393Z,51.47
2018-08-23T04:14:27.836Z,52.70
2018-08-23T04:16:55.204Z,50.00
2018-08-23T04:19:22.624Z,50.60
2018-08-23T04:21:50.004Z,52.30
2018-08-23T04:24:17.392Z,50.33
2018-08-23T04:26:44.700Z,50.40
2018-08-23T04:29:13.981Z,48.30
2018-08-23T04:31:41.332Z,52.93
2018-08-23T04:34:08.702Z,51.23
2018-08-23T04:36:38.073Z,50.00
2018-08-23T04:39:10.092Z,53.20
2018-08-23T04:41:37.455Z,57.57
2018-08-23T04:44:13.072Z,51.10
2018-08-23T04:46:40.436Z,56.73
2018-08-23T04:49:07.836Z,51.90
2018-08-23T04:51:36.415Z,53.43
2018-08-23T04:54:03.891Z,48.17
2018-08-23T04:56:31.563Z,60.70
2018-08-23T04:58:59.083Z,60.27
2018-08-23T05:01:26.463Z,57.80
2018-08-23T05:03:53.844Z,56.30
2018-08-23T05:06:21.201Z,59.57
2018-08-23T05:08:48.907Z,53.37
2018-08-23T05:11:16.252Z,58.10
2018-08-23T05:13:43.610Z,59.00
2018-08-23T05:16:10.981Z,69.83
2018-08-23T05:18:38.316Z,62.53
2018-08-23T05:21:07.132Z,58.13
2018-08-23T05:23:34.580Z,59.37
2018-08-23T05:26:19.863Z,58.03
2018-08-23T05:29:00.025Z,70.00
2018-08-23T05:31:28.781Z,62.20
2018-08-23T05:34:01.149Z,61.30
2018-08-23T05:36:28.492Z,62.10
2018-08-23T05:38:55.856Z,59.23
2018-08-23T05:41:23.235Z,60.87
2018-08-23T05:43:59.316Z,57.33
2018-08-23T05:46:26.995Z,61.07
2018-08-23T05:48:54.359Z,59.00
2018-08-23T05:51:21.756Z,60.37
2018-08-23T05:53:51.960Z,58.33
2018-08-23T05:56:19.728Z,60.57
2018-08-23T05:58:47.088Z,60.20
2018-08-23T06:01:14.708Z,55.23
2018-08-23T06:03:42.059Z,59.80
2018-08-23T06:06:09.436Z,59.07
2018-08-23T06:08:41.747Z,54.77
2018-08-23T06:11:10.187Z,54.97
2018-08-23T06:13:37.888Z,53.60
2018-08-23T06:16:05.384Z,52.10
2018-08-23T06:18:34.255Z,56.93
2018-08-23T06:21:01.631Z,56.57
2018-08-23T06:24:09.728Z,57.83
2018-08-23T06:26:44.900Z,55.63
2018-08-23T06:29:25.737Z,50.57
2018-08-23T06:32:10.803Z,59.53
2018-08-23T06:34:49.391Z,49.93
2018-08-23T06:37:17.192Z,49.87
2018-08-23T06:39:44.383Z,57.50
2018-08-23T06:42:11.558Z,48.40
2018-08-23T06:44:49.539Z,51.90
2018-08-23T06:47:18.075Z,51.40
2018-08-23T06:49:46.384Z,48.37
2018-08-23T06:52:37.192Z,49.67
2018-08-23T06:55:04.665Z,48.27
2018-08-23T06:57:42.745Z,48.00
2018-08-23T07:00:09.999Z,51.43
2018-08-23T07:02:41.775Z,50.57
2018-08-23T07:05:09.463Z,57.53
2018-08-23T07:07:36.725Z,49.17
2018-08-23T07:10:04.084Z,52.60
2018-08-23T07:12:31.215Z,53.37
2018-08-23T07:14:58.352Z,56.17
2018-08-23T07:17:27.351Z,48.33
2018-08-23T07:19:54.537Z,56.30
2018-08-23T07:22:23.031Z,48.67
2018-08-23T07:24:51.387Z,47.60
2018-08-23T07:27:19.917Z,50.47
2018-08-23T07:29:48.484Z,48.20
2018-08-23T07:32:21.924Z,52.90
2018-08-23T07:34:58.718Z,47.90
2018-08-23T07:37:27.193Z,47.23
2018-08-23T07:40:15.026Z,48.73
2018-08-23T07:42:43.449Z,47.80
2018-08-23T07:45:10.905Z,44.07
2018-08-23T07:47:40.631Z,45.63
2018-08-23T07:50:07.860Z,48.80
2018-08-23T07:52:35.731Z,46.07
2018-08-23T07:55:03.028Z,46.87
2018-08-23T07:57:32.431Z,46.53
2018-08-23T08:00:00.955Z,46.20
2018-08-23T08:02:28.640Z,47.73
2018-08-23T08:04:56.435Z,43.73
2018-08-23T08:07:25.834Z,41.33
2018-08-23T08:09:55.136Z,35.80
2018-08-23T08:12:38.037Z,42.63
2018-08-23T08:15:11.232Z,35.23
2018-08-23T08:17:38.952Z,32.10
2018-08-23T08:20:07.560Z,30.37
2018-08-23T08:22:34.812Z,32.53
2018-08-23T08:25:08.096Z,32.87
2018-08-23T08:27:37.451Z,30.53
2018-08-23T08:30:06.587Z,30.83
2018-08-23T08:32:33.919Z,31.03
2018-08-23T08:35:01.412Z,30.67
2018-08-23T08:37:28.794Z,28.17
2018-08-23T08:39:59.767Z,27.70
2018-08-23T08:42:29.443Z,25.47
2018-08-23T08:45:01.453Z,24.90
2018-08-23T08:47:28.929Z,25.63
2018-08-23T08:49:56.324Z,24.87
2018-08-23T08:52:26.480Z,23.00
2018-08-23T08:54:53.823Z,20.93
2018-08-23T08:57:26.081Z,26.03
2018-08-23T08:59:54.383Z,26.67
2018-08-23T09:02:21.809Z,24.13
2018-08-23T09:04:53.668Z,24.73
2018-08-23T09:07:27.000Z,25.23
2018-08-23T09:09:54.450Z,24.27
2018-08-23T09:12:21.772Z,23.80
2018-08-23T09:14:53.848Z,23.00
2018-08-23T09:17:43.249Z,21.90
2018-08-23T09:20:16.412Z,21.63
2018-08-23T09:22:51.164Z,20.33
2018-08-23T09:25:22.866Z,19.77
2018-08-23T09:27:50.648Z,18.10
2018-08-23T09:30:26.268Z,18.30
2018-08-23T09:32:53.936Z,16.50
2018-08-23T09:35:25.928Z,17.97
2018-08-23T09:37:55.599Z,18.40
2018-08-23T09:40:26.488Z,18.03
2018-08-23T09:42:53.941Z,16.50
2018-08-23T09:45:21.341Z,19.57
2018-08-23T09:47:48.725Z,17.50
2018-08-23T09:50:16.483Z,18.83
2018-08-23T09:52:51.159Z,17.80
2018-08-23T09:55:19.733Z,15.40
2018-08-23T09:57:47.510Z,15.80
2018-08-23T10:00:20.674Z,14.17
2018-08-23T10:02:56.473Z,13.50
2018-08-23T10:05:29.652Z,14.43
2018-08-23T10:08:02.762Z,13.03
2018-08-23T10:10:38.388Z,11.60
2018-08-23T10:13:13.309Z,11.20
2018-08-23T10:15:43.856Z,13.30
2018-08-23T10:18:18.357Z,12.80
2018-08-23T10:20:53.664Z,12.53
2018-08-23T10:23:22.639Z,13.23
2018-08-23T10:25:52.982Z,12.33
2018-08-23T10:28:25.316Z,13.57
2018-08-23T10:30:53.030Z,13.07
2018-08-23T10:33:20.435Z,14.00
2018-08-23T10:35:50.003Z,15.13
2018-08-23T10:38:18.879Z,16.00
2018-08-23T10:40:51.937Z,15.40
2018-08-23T10:43:25.076Z,15.23
2018-08-23T10:45:52.692Z,14.43
2018-08-23T10:48:20.089Z,17.53
2018-08-23T10:50:48.488Z,17.40
2018-08-23T10:53:17.511Z,16.13
2018-08-23T10:55:45.225Z,16.97
2018-08-23T10:58:12.583Z,15.07
2018-08-23T11:00:40.063Z,14.40
2018-08-23T11:03:07.413Z,16.57
2018-08-23T11:05:34.822Z,15.97
2018-08-23T11:08:10.771Z,14.57
2018-08-23T11:10:44.024Z,12.57
2018-08-23T11:13:17.066Z,15.83
2018-08-23T11:15:47.832Z,15.30
2018-08-23T11:18:20.859Z,15.10
2018-08-23T11:20:49.448Z,12.97
2018-08-23T11:23:24.399Z,15.63
2018-08-23T11:25:53.498Z,14.90
2018-08-23T11:28:22.055Z,12.17
2018-08-23T11:30:50.163Z,13.27
2018-08-23T11:33:17.616Z,12.30
2018-08-23T11:35:45.072Z,11.77
2018-08-23T11:38:12.584Z,10.10
2018-08-23T11:40:41.432Z,10.30
2018-08-23T11:43:08.888Z,10.73
2018-08-23T11:45:36.301Z,9.80
2018-08-23T11:48:03.736Z,9.57
2018-08-23T11:50:31.133Z,8.70
2018-08-23T11:52:58.618Z,8.77
2018-08-23T11:55:28.304Z,8.47
2018-08-23T11:57:56.539Z,10.40
2018-08-23T12:00:23.955Z,9.33
2018-08-23T12:02:51.331Z,10.53
2018-08-23T12:05:18.816Z,9.60
2018-08-23T12:07:47.682Z,8.33
2018-08-23T12:10:18.796Z,7.93
2018-08-23T12:12:47.092Z,7.27
2018-08-23T12:15:21.574Z,8.00
2018-08-23T12:17:49.578Z,8.20
2018-08-23T12:20:18.784Z,7.40
2018-08-23T12:22:46.204Z,7.30
2018-08-23T12:25:13.733Z,7.33
2018-08-23T12:27:41.647Z,6.93
2018-08-23T12:30:09.041Z,6.13
2018-08-23T12:32:36.525Z,6.67
2018-08-23T12:35:06.970Z,6.37
2018-08-23T12:37:40.268Z,6.10
2018-08-23T12:40:13.463Z,6.40
2018-08-23T12:42:48.539Z,7.00
2018-08-23T12:45:16.018Z,6.10
2018-08-23T12:47:43.852Z,5.27
2018-08-23T12:50:11.249Z,6.07
2018-08-23T12:52:38.733Z,6.03
2018-08-23T12:55:06.208Z,6.17
2018-08-23T12:57:35.901Z,5.37
2018-08-23T13:00:03.446Z,7.23
2018-08-23T13:02:31.070Z,6.47
2018-08-23T13:04:58.359Z,5.23
2018-08-23T13:07:25.792Z,5.67
2018-08-23T13:09:53.180Z,7.23
2018-08-23T13:12:25.536Z,7.00
2018-08-23T13:14:52.900Z,6.17
2018-08-23T13:17:20.328Z,6.17
2018-08-23T13:19:47.740Z,5.10
2018-08-23T13:22:21.245Z,6.50
2018-08-23T13:24:56.150Z,4.00
2018-08-23T13:27:28.175Z,4.60
2018-08-23T13:29:55.454Z,4.47
2018-08-23T13:32:22.845Z,4.23
2018-08-23T13:34:55.409Z,5.60
2018-08-23T13:37:22.907Z,4.93
2018-08-23T13:39:50.276Z,5.13
2018-08-23T13:42:18.106Z,5.23
2018-08-23T13:44:45.495Z,5.20
2018-08-23T13:47:12.860Z,4.90
2018-08-23T13:49:40.210Z,5.23
2018-08-23T13:52:09.476Z,5.30
2018-08-23T13:54:36.988Z,5.10
2018-08-23T13:57:04.292Z,6.27
2018-08-23T13:59:31.624Z,5.87
2018-08-23T14:01:59.836Z,6.70
2018-08-23T14:04:27.163Z,5.77
2018-08-23T14:06:54.525Z,7.70
2018-08-23T14:09:22.044Z,7.17
2018-08-23T14:11:49.448Z,6.80
2018-08-23T14:14:16.865Z,6.20
2018-08-23T14:16:49.052Z,6.40
2018-08-23T14:19:16.331Z,4.70
2018-08-23T14:21:43.463Z,5.53
2018-08-23T14:24:10.655Z,7.50
2018-08-23T14:26:37.791Z,5.80
2018-08-23T14:29:04.951Z,5.33
2018-08-23T14:31:32.115Z,5.13
2018-08-23T14:33:59.451Z,5.43
2018-08-23T14:36:26.613Z,8.73
2018-08-23T14:38:53.883Z,6.33
2018-08-23T14:41:20.964Z,5.60
2018-08-23T14:43:48.296Z,5.10
2018-08-23T14:46:21.199Z,5.33
2018-08-23T14:48:48.686Z,5.30
2018-08-23T14:51:17.547Z,5.77
2018-08-23T14:53:45.834Z,6.60
2018-08-23T14:56:18.879Z,12.03
2018-08-23T14:58:46.128Z,6.53
2018-08-23T15:01:13.284Z,5.20
2018-08-23T15:03:40.447Z,6.70
2018-08-23T15:06:07.672Z,5.97
2018-08-23T15:08:34.836Z,6.90
2018-08-23T15:11:02.045Z,7.93
2018-08-23T15:13:29.176Z,6.73
2018-08-23T15:15:56.325Z,20.90
2018-08-23T15:18:23.588Z,7.73
2018-08-23T15:20:51.141Z,20.23
2018-08-23T15:23:18.371Z,12.20
2018-08-23T15:25:45.568Z,6.30
2018-08-23T15:28:12.773Z,7.17
2018-08-23T15:30:40.023Z,5.50
2018-08-23T15:33:07.349Z,5.70
2018-08-23T15:35:34.487Z,6.13
2018-08-23T15:38:01.697Z,5.97
2018-08-23T15:40:28.881Z,7.33
2018-08-23T15:42:56.087Z,5.83
2018-08-23T15:45:23.373Z,6.77
2018-08-23T15:47:50.679Z,6.57
2018-08-23T15:50:18.794Z,6.37
2018-08-23T15:52:46.015Z,7.40
2018-08-23T15:55:13.446Z,5.90
2018-08-23T15:57:41.380Z,8.60
2018-08-23T16:00:09.438Z,6.83
2018-08-23T16:02:36.679Z,7.33
2018-08-23T16:05:04.256Z,7.30
2018-08-23T16:07:31.608Z,7.90
2018-08-23T16:09:59.356Z,10.00
2018-08-23T16:12:26.563Z,8.27
2018-08-23T16:14:53.816Z,8.73
2018-08-23T16:17:26.853Z,11.93
2018-08-23T16:19:59.888Z,8.47
2018-08-23T16:22:27.366Z,8.87
2018-08-23T16:24:54.598Z,9.90
2018-08-23T16:27:21.788Z,9.10
2018-08-23T16:29:50.454Z,9.93
2018-08-23T16:32:23.535Z,10.43
2018-08-23T16:34:50.790Z,10.60
2018-08-23T16:37:18.006Z,11.30
2018-08-23T16:39:45.276Z,10.03
2018-08-23T16:42:12.531Z,10.10
2018-08-23T16:44:39.785Z,10.03
2018-08-23T16:47:07.407Z,8.23
2018-08-23T16:49:34.628Z,9.83
2018-08-23T16:52:01.863Z,9.50
2018-08-23T16:54:29.043Z,9.17
2018-08-23T16:56:56.476Z,8.73
2018-08-23T16:59:23.934Z,8.60
2018-08-23T17:01:51.412Z,11.30
2018-08-23T17:04:18.830Z,8.30
2018-08-23T17:06:46.231Z,8.33
2018-08-23T17:09:13.695Z,8.80
2018-08-23T17:11:41.063Z,7.87
2018-08-23T17:14:08.547Z,7.70
2018-08-23T17:16:41.664Z,6.83
2018-08-23T17:19:09.112Z,6.93
2018-08-23T17:21:36.500Z,9.10
2018-08-23T17:24:03.854Z,7.60
2018-08-23T17:26:31.374Z,9.17
2018-08-23T17:28:58.783Z,6.90
2018-08-23T17:31:26.193Z,8.17
2018-08-23T17:33:53.559Z,6.73
2018-08-23T17:36:20.892Z,6.90
2018-08-23T17:38:48.235Z,7.00
2018-08-23T17:41:15.607Z,6.40
2018-08-23T17:43:42.980Z,7.50
2018-08-23T17:46:10.444Z,7.90
2018-08-23T17:48:37.800Z,8.00
2018-08-23T17:51:05.295Z,8.30
2018-08-23T17:53:32.703Z,8.37
2018-08-23T17:56:00.157Z,9.90
2018-08-23T17:58:27.508Z,9.83
2018-08-23T18:00:54.906Z,9.00
2018-08-23T18:03:22.259Z,9.70
2018-08-23T18:05:49.668Z,12.57
2018-08-23T18:08:17.024Z,12.80
2018-08-23T18:10:44.392Z,16.90
2018-08-23T18:13:11.708Z,12.90
2018-08-23T18:15:44.731Z,12.13
2018-08-23T18:18:12.107Z,11.73
2018-08-23T18:20:39.481Z,12.77
2018-08-23T18:23:06.828Z,12.30
2018-08-23T18:25:34.289Z,12.33
2018-08-23T18:28:01.824Z,12.60
2018-08-23T18:30:29.212Z,11.63
2018-08-23T18:32:56.593Z,14.23
2018-08-23T18:35:24.174Z,15.03
2018-08-23T18:37:51.723Z,12.70
2018-08-23T18:40:19.199Z,12.80
2018-08-23T18:42:46.639Z,12.93
2018-08-23T18:45:14.044Z,12.80
2018-08-23T18:47:41.768Z,13.30
2018-08-23T18:50:09.155Z,11.90
2018-08-23T18:52:36.532Z,11.00
2018-08-23T18:55:07.046Z,12.30
2018-08-23T18:57:34.697Z,13.00
2018-08-23T19:00:02.374Z,11.70
2018-08-23T19:02:29.689Z,11.80
2018-08-23T19:04:57.492Z,10.83
2018-08-23T19:07:34.467Z,12.27
2018-08-23T19:10:01.946Z,11.10
2018-08-23T19:12:30.118Z,10.97
2018-08-23T19:14:57.531Z,10.50
2018-08-23T19:17:34.568Z,10.33
2018-08-23T19:20:01.963Z,10.53
2018-08-23T19:22:32.283Z,9.33
2018-08-23T19:24:59.773Z,11.03
2018-08-23T19:27:27.063Z,10.07
2018-08-23T19:29:58.745Z,9.80
2018-08-23T19:32:26.147Z,8.80
2018-08-23T19:34:53.537Z,9.37
2018-08-23T19:37:20.972Z,8.63
2018-08-23T19:39:48.364Z,8.50
2018-08-23T19:42:15.793Z,10.13
2018-08-23T19:44:50.122Z,9.40
2018-08-23T19:47:23.271Z,9.30
2018-08-23T19:49:52.668Z,9.30
2018-08-23T19:52:20.531Z,8.03
2018-08-23T19:54:48.124Z,9.53
2018-08-23T19:57:17.181Z,8.90
2018-08-23T19:59:44.678Z,9.20
2018-08-23T20:02:12.081Z,9.50
2018-08-23T20:04:40.523Z,9.53
2018-08-23T20:07:10.268Z,9.07
2018-08-23T20:09:37.939Z,10.13
2018-08-23T20:12:05.311Z,8.90
2018-08-23T20:14:33.183Z,9.00
2018-08-23T20:17:00.802Z,8.37
2018-08-23T20:19:28.365Z,10.00
2018-08-23T20:21:56.180Z,10.33
2018-08-23T20:24:23.527Z,9.03
2018-08-23T20:26:50.886Z,9.47
2018-08-23T20:29:18.244Z,9.60
2018-08-23T20:31:45.594Z,8.90
2018-08-23T20:34:12.995Z,8.50
2018-08-23T20:36:40.375Z,8.20
2018-08-23T20:39:09.999Z,8.70
2018-08-23T20:41:37.288Z,9.83
2018-08-23T20:44:04.552Z,9.63
2018-08-23T20:46:32.000Z,7.23
2018-08-23T20:48:59.191Z,7.27
2018-08-23T20:51:26.469Z,7.50
2018-08-23T20:53:53.814Z,6.83
2018-08-23T20:56:21.169Z,6.87
2018-08-23T20:58:48.463Z,5.63
2018-08-23T21:01:15.715Z,8.70
2018-08-23T21:03:42.949Z,5.70
2018-08-23T21:06:10.085Z,5.77
2018-08-23T21:08:37.275Z,5.63
2018-08-23T21:11:04.476Z,6.00
2018-08-23T21:13:31.620Z,4.73
2018-08-23T21:15:58.868Z,5.20
2018-08-23T21:18:26.047Z,9.80
2018-08-23T21:20:53.312Z,5.53
2018-08-23T21:23:20.557Z,5.07
2018-08-23T21:25:47.799Z,7.03
2018-08-23T21:28:14.987Z,5.33
2018-08-23T21:30:42.211Z,5.57
2018-08-23T21:33:09.388Z,4.77
2018-08-23T21:35:38.524Z,4.13
2018-08-23T21:38:05.828Z,4.40
2018-08-23T21:40:33.040Z,4.70
2018-08-23T21:43:00.382Z,4.73
2018-08-23T21:45:27.571Z,4.63
2018-08-23T21:47:54.795Z,4.57
2018-08-23T21:50:22.081Z,4.67
2018-08-23T21:52:51.218Z,4.53
2018-08-23T21:55:22.566Z,3.83
2018-08-23T21:57:49.800Z,4.57
2018-08-23T22:00:17.024Z,3.90
2018-08-23T22:02:44.237Z,4.10
2018-08-23T22:05:11.457Z,4.90
2018-08-23T22:07:38.719Z,3.90
2018-08-23T22:10:06.006Z,3.83
2018-08-23T22:12:33.108Z,3.83
2018-08-23T22:15:00.344Z,3.23
2018-08-23T22:17:27.595Z,3.10
2018-08-23T22:19:54.879Z,3.37
2018-08-23T22:22:22.106Z,3.90
2018-08-23T22:24:49.428Z,4.00
2018-08-23T22:27:16.623Z,3.93
2018-08-23T22:29:43.803Z,3.40
2018-08-23T22:32:10.935Z,3.73
2018-08-23T22:34:38.099Z,3.47
2018-08-23T22:37:05.279Z,3.73
2018-08-23T22:39:32.488Z,3.63
2018-08-23T22:41:59.856Z,5.33
2018-08-23T22:44:27.040Z,3.27
2018-08-23T22:46:54.252Z,3.17
2018-08-23T22:49:21.721Z,4.07
2018-08-23T22:51:48.876Z,3.10
2018-08-23T22:54:16.188Z,3.47
2018-08-23T22:56:43.740Z,3.00
2018-08-23T22:59:10.875Z,3.07
2018-08-23T23:01:38.663Z,2.90
2018-08-23T23:04:11.645Z,3.53
2018-08-23T23:06:38.828Z,3.67
2018-08-23T23:09:07.921Z,3.00
2018-08-23T23:11:35.180Z,3.20
2018-08-23T23:14:02.339Z,3.33
2018-08-23T23:16:29.574Z,3.10
2018-08-23T23:18:56.786Z,3.20
2018-08-23T23:21:25.688Z,2.97
2018-08-23T23:23:53.025Z,4.33
2018-08-23T23:26:20.193Z,2.57
2018-08-23T23:28:47.335Z,3.77
2018-08-23T23:31:14.500Z,3.07
2018-08-23T23:33:41.823Z,2.90
2018-08-23T23:36:08.971Z,4.00
2018-08-23T23:38:36.224Z,3.50
2018-08-23T23:41:03.400Z,2.10
2018-08-23T23:43:30.688Z,2.67
2018-08-23T23:45:57.981Z,3.73
2018-08-23T23:48:25.288Z,2.47
2018-08-23T23:50:52.522Z,3.40
2018-08-23T23:53:19.673Z,2.40
2018-08-23T23:55:46.817Z,3.70
2018-08-23T23:58:13.978Z,2.40
